createdAt,value
2023-01-09T00:00:26.343Z,36.43
2023-01-09T00:05:28.819Z,31.00
2023-01-09T00:10:31.320Z,35.97
2023-01-09T00:15:33.989Z,33.37
2023-01-09T00:20:36.787Z,22.47
2023-01-09T00:25:41.687Z,37.17
2023-01-09T00:30:44.996Z,35.57
2023-01-09T00:35:47.616Z,34.67
2023-01-09T00:40:51.285Z,31.40
2023-01-09T00:45:53.956Z,35.53
2023-01-09T00:51:00.329Z,33.17
2023-01-09T00:56:07.748Z,26.73
2023-01-09T01:01:10.528Z,29.27
2023-01-09T01:06:31.536Z,36.97
2023-01-09T01:11:34.546Z,37.17
2023-01-09T01:16:37.740Z,38.27
2023-01-09T01:21:40.229Z,38.80
2023-01-09T01:26:42.772Z,36.83
2023-01-09T01:31:45.229Z,37.40
2023-01-09T01:36:47.817Z,29.47
2023-01-09T01:41:50.494Z,36.33
2023-01-09T01:46:55.542Z,42.33
2023-01-09T01:51:59.316Z,30.40
2023-01-09T01:57:03.936Z,36.03
2023-01-09T02:02:08.188Z,39.90
2023-01-09T02:07:10.909Z,29.83
2023-01-09T02:12:23.853Z,35.30
2023-01-09T02:17:41.223Z,26.70
2023-01-09T02:22:49.335Z,29.40
2023-01-09T02:28:00.991Z,40.97
2023-01-09T02:33:24.995Z,32.43
2023-01-09T02:38:55.246Z,35.77
2023-01-09T02:44:17.307Z,27.47
2023-01-09T02:49:19.762Z,39.40
2023-01-09T02:54:43.068Z,35.90
2023-01-09T02:59:56.794Z,38.30
2023-01-09T03:05:11.571Z,35.80
2023-01-09T03:10:27.008Z,39.57
2023-01-09T03:15:34.695Z,33.93
2023-01-09T03:20:38.862Z,31.83
2023-01-09T03:25:41.401Z,23.27
2023-01-09T03:30:43.957Z,22.67
2023-01-09T03:35:46.887Z,26.10
2023-01-09T03:40:49.308Z,30.13
2023-01-09T03:45:51.887Z,33.20
2023-01-09T03:50:55.944Z,28.90
2023-01-09T03:55:58.973Z,34.70
2023-01-09T04:01:04.174Z,29.67
2023-01-09T04:06:07.367Z,24.57
2023-01-09T04:11:09.865Z,30.73
2023-01-09T04:16:12.431Z,35.47
2023-01-09T04:21:14.936Z,34.60
2023-01-09T04:26:17.395Z,29.60
2023-01-09T04:31:20.114Z,33.87
2023-01-09T04:36:22.588Z,29.80
2023-01-09T04:41:43.447Z,31.70
2023-01-09T04:46:46.217Z,64.67
2023-01-09T04:51:48.864Z,31.30
2023-01-09T04:56:51.310Z,32.83
2023-01-09T05:01:55.838Z,37.73
2023-01-09T05:06:58.377Z,39.30
2023-01-09T05:12:01.914Z,37.03
2023-01-09T05:17:04.534Z,28.50
2023-01-09T05:22:06.987Z,32.67
2023-01-09T05:27:09.444Z,34.97
2023-01-09T05:32:11.873Z,29.93
2023-01-09T05:37:14.414Z,31.33
2023-01-09T05:42:16.910Z,31.77
2023-01-09T05:47:19.391Z,28.73
2023-01-09T05:52:22.346Z,33.17
2023-01-09T05:57:24.764Z,34.87
2023-01-09T06:02:27.383Z,29.37
2023-01-09T06:07:30.028Z,35.13
2023-01-09T06:12:32.490Z,40.43
2023-01-09T06:17:35.028Z,40.87
2023-01-09T06:22:37.640Z,33.00
2023-01-09T06:27:40.161Z,32.00
2023-01-09T06:32:42.688Z,34.53
2023-01-09T06:37:45.128Z,52.37
2023-01-09T06:42:49.450Z,77.40
2023-01-09T06:47:51.981Z,78.67
2023-01-09T06:52:54.527Z,71.63
2023-01-09T06:57:57.084Z,74.80
2023-01-09T07:02:59.611Z,56.30
2023-01-09T07:08:02.094Z,59.67
2023-01-09T07:13:04.580Z,62.87
2023-01-09T07:18:07.103Z,57.33
2023-01-09T07:23:13.057Z,68.23
2023-01-09T07:28:15.572Z,57.93
2023-01-09T07:33:18.172Z,65.87
2023-01-09T07:38:20.578Z,72.30
2023-01-09T07:43:23.011Z,61.67
2023-01-09T07:48:25.493Z,60.57
2023-01-09T07:53:28.403Z,61.33
2023-01-09T07:58:30.874Z,60.27
2023-01-09T08:03:35.935Z,59.80
2023-01-09T08:08:38.483Z,64.00
2023-01-09T08:13:40.924Z,59.27
2023-01-09T08:18:43.553Z,62.83
2023-01-09T08:23:46.462Z,63.93
2023-01-09T08:28:49.021Z,62.10
2023-01-09T08:33:51.508Z,67.33
2023-01-09T08:38:54.145Z,59.53
2023-01-09T08:44:15.475Z,59.57
2023-01-09T08:49:18.115Z,53.13
2023-01-09T08:54:21.031Z,64.33
2023-01-09T08:59:23.523Z,66.40
2023-01-09T09:04:26.132Z,65.63
2023-01-09T09:09:28.495Z,51.03
2023-01-09T09:14:49.453Z,61.17
2023-01-09T09:19:51.925Z,53.57
2023-01-09T09:24:54.464Z,47.67
2023-01-09T09:29:57.045Z,57.30
2023-01-09T09:34:59.530Z,49.67
2023-01-09T09:40:13.293Z,45.90
2023-01-09T09:45:44.541Z,51.40
2023-01-09T09:51:34.970Z,57.37
2023-01-09T09:56:48.140Z,56.07
2023-01-09T10:01:56.362Z,59.47
2023-01-09T10:07:06.874Z,58.47
2023-01-09T10:12:27.475Z,42.97
2023-01-09T10:18:07.484Z,52.23
2023-01-09T10:23:47.444Z,42.30
2023-01-09T10:29:21.975Z,57.17
2023-01-09T10:34:30.259Z,46.90
2023-01-09T10:39:57.099Z,43.40
2023-01-09T10:45:28.205Z,59.97
2023-01-09T10:50:35.825Z,51.83
2023-01-09T10:55:48.504Z,42.73
2023-01-09T11:00:51.966Z,54.03
2023-01-09T11:05:59.557Z,50.83
2023-01-09T11:11:03.290Z,51.80
2023-01-09T11:16:17.608Z,57.60
2023-01-09T11:21:28.222Z,51.77
2023-01-09T11:26:33.077Z,45.33
2023-01-09T11:31:36.047Z,37.07
2023-01-09T11:36:38.738Z,49.73
2023-01-09T11:41:41.291Z,45.73
2023-01-09T11:46:44.810Z,52.43
2023-01-09T11:52:04.416Z,44.90
2023-01-09T11:57:25.923Z,52.57
2023-01-09T12:03:06.794Z,51.70
2023-01-09T12:08:40.291Z,50.33
2023-01-09T12:13:42.850Z,53.67
2023-01-09T12:19:05.642Z,53.47
2023-01-09T12:31:04.726Z,59.10
2023-01-09T12:36:24.721Z,52.40
2023-01-09T12:41:43.359Z,51.83
2023-01-09T12:47:13.158Z,62.60
2023-01-09T12:52:23.376Z,56.43
2023-01-09T12:57:35.606Z,62.47
2023-01-09T13:02:45.612Z,60.67
2023-01-09T13:07:54.901Z,68.03
2023-01-09T13:13:00.022Z,72.07
2023-01-09T13:18:26.537Z,61.80
2023-01-09T13:23:52.929Z,68.77
2023-01-09T13:29:04.262Z,72.10
2023-01-09T13:34:21.950Z,74.57
2023-01-09T13:39:26.322Z,77.60
2023-01-09T13:44:29.224Z,67.43
2023-01-09T13:49:43.849Z,68.00
2023-01-09T13:54:52.004Z,74.67
2023-01-09T13:59:58.478Z,76.47
2023-01-09T14:05:02.256Z,64.23
2023-01-09T14:10:08.295Z,69.40
2023-01-09T14:15:37.797Z,65.13
2023-01-09T14:20:48.040Z,65.90
2023-01-09T14:25:52.479Z,61.27
2023-01-09T14:30:55.013Z,57.83
2023-01-09T14:36:24.358Z,64.07
2023-01-09T14:42:04.108Z,73.63
2023-01-09T14:47:29.849Z,67.63
2023-01-09T14:52:44.883Z,74.73
2023-01-09T14:57:52.146Z,69.67
2023-01-09T15:02:55.018Z,71.17
2023-01-09T15:08:03.404Z,59.13
2023-01-09T15:13:14.133Z,61.90
2023-01-09T15:18:30.185Z,67.97
2023-01-09T15:23:32.808Z,62.03
2023-01-09T15:28:42.816Z,59.43
2023-01-09T15:33:47.708Z,60.93
2023-01-09T15:38:51.567Z,63.20
2023-01-09T15:43:54.185Z,59.90
2023-01-09T15:48:56.970Z,56.50
2023-01-09T15:54:01.118Z,53.47
2023-01-09T15:59:23.201Z,56.80
2023-01-09T16:04:25.901Z,66.77
2023-01-09T16:09:30.277Z,46.73
2023-01-09T16:14:38.616Z,49.40
2023-01-09T16:19:41.216Z,48.63
2023-01-09T16:24:43.774Z,46.43
2023-01-09T16:29:51.130Z,44.73
2023-01-09T16:35:04.689Z,47.10
2023-01-09T16:46:45.470Z,43.23
2023-01-09T16:51:51.700Z,41.83
2023-01-09T16:56:54.892Z,44.67
2023-01-09T17:01:57.455Z,45.40
2023-01-09T17:07:00.365Z,38.47
2023-01-09T17:12:02.733Z,41.10
2023-01-09T17:17:09.465Z,39.10
2023-01-09T17:22:11.943Z,39.23
2023-01-09T17:27:33.056Z,38.47
2023-01-09T17:32:35.515Z,35.17
2023-01-09T17:37:38.844Z,36.23
2023-01-09T17:42:41.271Z,37.80
2023-01-09T17:47:46.621Z,46.87
2023-01-09T17:52:50.923Z,47.90
2023-01-09T17:57:53.785Z,48.07
2023-01-09T18:02:57.332Z,48.27
2023-01-09T18:08:00.053Z,49.37
2023-01-09T18:13:02.637Z,49.20
2023-01-09T18:18:06.082Z,51.10
2023-01-09T18:23:10.970Z,28.90
2023-01-09T18:28:15.462Z,29.90
2023-01-09T18:33:18.101Z,28.27
2023-01-09T18:38:20.554Z,30.63
2023-01-09T18:43:23.001Z,30.57
2023-01-09T18:48:26.750Z,29.80
2023-01-09T18:53:29.167Z,32.77
2023-01-09T18:58:33.876Z,25.63
2023-01-09T19:03:36.511Z,24.57
2023-01-09T19:08:39.038Z,22.37
2023-01-09T19:13:42.036Z,25.10
2023-01-09T19:18:44.636Z,24.00
2023-01-09T19:23:48.207Z,21.73
2023-01-09T19:28:51.966Z,25.03
2023-01-09T19:33:54.564Z,28.93
2023-01-09T19:38:58.851Z,26.67
2023-01-09T19:44:01.896Z,19.97
2023-01-09T19:49:05.161Z,20.07
2023-01-09T19:54:09.256Z,26.20
2023-01-09T19:59:14.347Z,22.13
2023-01-09T20:04:17.750Z,22.07
2023-01-09T20:09:27.412Z,28.47
2023-01-09T20:14:29.849Z,25.70
2023-01-09T20:19:33.249Z,27.10
2023-01-09T20:24:37.193Z,33.87
2023-01-09T20:29:39.783Z,32.07
2023-01-09T20:34:45.136Z,24.37
2023-01-09T20:39:47.612Z,32.20
2023-01-09T20:44:50.309Z,29.13
2023-01-09T20:49:52.904Z,31.43
2023-01-09T20:54:55.455Z,26.43
2023-01-09T20:59:58.001Z,30.60
2023-01-09T21:05:00.441Z,39.07
2023-01-09T21:10:03.109Z,33.03
2023-01-09T21:15:09.313Z,35.40
2023-01-09T21:20:14.867Z,33.60
2023-01-09T21:25:17.454Z,39.97
2023-01-09T21:30:20.037Z,35.43
2023-01-09T21:35:22.605Z,36.10
2023-01-09T21:40:25.043Z,35.07
2023-01-09T21:45:46.263Z,47.60
2023-01-09T21:50:48.833Z,67.87
2023-01-09T21:55:51.308Z,114.90
2023-01-09T22:01:00.493Z,128.60
2023-01-09T22:12:22.321Z,133.53
2023-01-09T22:17:25.347Z,107.87
2023-01-09T22:22:30.631Z,46.73
2023-01-09T22:27:33.120Z,60.10
2023-01-09T22:33:39.753Z,72.67
2023-01-09T22:38:42.242Z,73.30
2023-01-09T22:43:44.872Z,85.93
2023-01-09T22:48:47.585Z,82.27
2023-01-09T22:53:51.107Z,62.47
2023-01-09T22:58:55.393Z,50.47
2023-01-09T23:03:57.867Z,57.30
2023-01-09T23:09:00.425Z,55.03
2023-01-09T23:14:02.911Z,49.60
2023-01-09T23:19:14.623Z,47.13
2023-01-09T23:24:18.302Z,53.33
2023-01-09T23:29:21.831Z,51.27
2023-01-09T23:34:30.565Z,53.53
2023-01-09T23:39:36.276Z,56.70
2023-01-09T23:44:39.007Z,40.23
2023-01-09T23:49:41.673Z,48.43
2023-01-09T23:54:44.148Z,53.33
2023-01-09T23:59:46.705Z,51.10
